Time;durP1;ratioP1;P1;durP2;ratioP2;P2;SDS_P1;SDS_P2;PMS_P1;PMS_P2;Temp;Humidity;BMP_temperature;BMP_pressure;BME280_temperature;BME280_humidity;BME280_pressure;Samples;Min_cycle;Max_cycle;Signal;HPM_P1;HPM_P2
2023/03/27 00:01:49;;;;;;;1.27;1.00;;;7.50;98.00;;;;;;5054460;28;20530;-67
2023/03/27 00:04:17;;;;;;;1.30;1.10;;;7.50;98.00;;;;;;5053007;28;20484;-67
2023/03/27 00:06:44;;;;;;;1.20;1.10;;;7.40;98.00;;;;;;5054352;28;20460;-67
2023/03/27 00:09:12;;;;;;;1.10;0.90;;;7.20;98.00;;;;;;5054131;28;20503;-66
2023/03/27 00:11:39;;;;;;;1.20;1.10;;;7.30;98.00;;;;;;5054145;28;20485;-67
2023/03/27 00:14:06;;;;;;;1.10;1.00;;;7.20;98.00;;;;;;5053008;28;20459;-67
2023/03/27 00:16:42;;;;;;;1.30;1.07;;;7.10;98.00;;;;;;5054147;28;20468;-67
2023/03/27 00:19:10;;;;;;;1.30;1.10;;;7.20;98.00;;;;;;5053898;28;20460;-67
2023/03/27 00:21:39;;;;;;;1.30;1.03;;;7.20;98.00;;;;;;5054118;28;20560;-67
2023/03/27 00:24:07;;;;;;;1.10;1.00;;;7.30;98.00;;;;;;5053924;28;20456;-67
2023/03/27 00:26:39;;;;;;;1.60;1.27;;;7.40;98.00;;;;;;5054124;28;21005;-67
2023/03/27 00:29:06;;;;;;;1.47;1.40;;;7.50;98.00;;;;;;5054111;28;20459;-66
2023/03/27 00:31:35;;;;;;;1.40;1.30;;;7.30;98.00;;;;;;5054069;28;20458;-66
2023/03/27 00:34:02;;;;;;;1.33;1.10;;;7.30;98.00;;;;;;5053782;28;20456;-67
2023/03/27 00:36:30;;;;;;;1.60;1.30;;;7.30;98.00;;;;;;5053613;28;20458;-67
2023/03/27 00:38:57;;;;;;;1.93;1.40;;;7.20;98.00;;;;;;5052602;28;20452;-66
2023/03/27 00:41:24;;;;;;;1.57;1.17;;;7.20;98.00;;;;;;5052473;28;20460;-67
2023/03/27 00:43:55;;;;;;;1.63;1.20;;;7.20;98.00;;;;;;5053555;28;20829;-67
2023/03/27 00:46:30;;;;;;;1.57;1.30;;;7.30;98.00;;;;;;5053380;28;20550;-66
2023/03/27 00:49:02;;;;;;;1.33;1.30;;;7.40;98.00;;;;;;5053561;28;20529;-67
2023/03/27 00:51:31;;;;;;;1.20;1.10;;;7.40;98.00;;;;;;5053392;28;20958;-66
2023/03/27 00:53:58;;;;;;;2.00;1.10;;;7.40;98.00;;;;;;5053420;28;20471;-67
2023/03/27 00:56:26;;;;;;;1.97;1.43;;;7.50;98.00;;;;;;5053310;28;20452;-67
2023/03/27 00:58:55;;;;;;;1.20;1.10;;;;;;;;;;5053367;28;20837;-67
2023/03/27 01:01:26;;;;;;;1.17;1.10;;;7.60;98.00;;;;;;5053229;28;20455;-67
2023/03/27 01:03:54;;;;;;;1.20;1.10;;;7.50;98.00;;;;;;5053452;28;20552;-67
2023/03/27 01:06:31;;;;;;;1.20;1.10;;;7.50;98.00;;;;;;5053065;28;20513;-66
2023/03/27 01:08:58;;;;;;;1.40;1.07;;;7.50;98.00;;;;;;5053141;28;20827;-66
2023/03/27 01:11:38;;;;;;;1.10;1.00;;;7.40;98.00;;;;;;5052800;28;20454;-66
2023/03/27 01:14:15;;;;;;;1.30;1.13;;;7.40;98.00;;;;;;5053219;28;20827;-67
2023/03/27 01:16:52;;;;;;;1.87;1.33;;;7.40;98.00;;;;;;5053182;28;20550;-66
2023/03/27 01:19:45;;;;;;;1.20;1.10;;;7.30;98.00;;;;;;5052995;28;20469;-66
2023/03/27 01:22:49;;;;;;;1.50;1.10;;;7.20;98.00;;;;;;5048858;28;20461;-66
2023/03/27 01:25:51;;;;;;;1.10;0.93;;;7.10;98.00;;;;;;5052897;28;20486;-67
2023/03/27 01:28:35;;;;;;;1.10;1.00;;;7.00;98.00;;;;;;5053046;28;20828;-67
2023/03/27 01:31:22;;;;;;;1.10;1.00;;;6.90;98.00;;;;;;5052744;28;20466;-67
2023/03/27 01:34:41;;;;;;;1.10;1.00;;;6.90;98.00;;;;;;5052887;28;20814;-66
2023/03/27 01:37:20;;;;;;;1.10;1.00;;;6.80;98.00;;;;;;5043725;28;21051;-67
2023/03/27 01:39:53;;;;;;;1.27;1.00;;;6.80;98.00;;;;;;5051899;28;20912;-67
2023/03/27 01:42:26;;;;;;;1.43;1.23;;;6.80;98.00;;;;;;5052463;28;20482;-67
2023/03/27 01:45:02;;;;;;;1.10;1.00;;;6.70;98.00;;;;;;5052333;28;20484;-67
2023/03/27 01:47:42;;;;;;;1.77;1.13;;;6.60;98.00;;;;;;5052313;28;20487;-66
2023/03/27 01:50:17;;;;;;;2.07;1.30;;;6.50;98.00;;;;;;5051773;28;20504;-66
2023/03/27 01:52:51;;;;;;;1.10;0.90;;;6.50;98.00;;;;;;5052286;28;20485;-67
2023/03/27 01:55:30;;;;;;;1.20;1.00;;;6.50;98.00;;;;;;5052004;28;20485;-67
2023/03/27 01:58:02;;;;;;;1.50;1.27;;;6.40;98.00;;;;;;5052135;28;20490;-66
2023/03/27 02:00:30;;;;;;;1.10;1.00;;;6.30;98.00;;;;;;5052364;28;20995;-67
2023/03/27 02:03:03;;;;;;;2.50;1.23;;;6.40;98.00;;;;;;5052044;28;20971;-66
2023/03/27 02:05:36;;;;;;;1.33;1.27;;;6.30;98.00;;;;;;5052024;28;20481;-66
2023/03/27 02:08:11;;;;;;;1.77;1.30;;;6.30;98.00;;;;;;5051951;28;20464;-66
2023/03/27 02:10:44;;;;;;;1.70;1.40;;;6.20;98.00;;;;;;5050721;28;20796;-66
2023/03/27 02:13:18;;;;;;;1.10;1.00;;;6.10;98.00;;;;;;5051857;28;20537;-67
2023/03/27 02:15:48;;;;;;;2.63;1.27;;;6.10;98.00;;;;;;5051877;28;21104;-66
2023/03/27 02:18:19;;;;;;;1.30;1.23;;;6.10;98.00;;;;;;5052130;28;20993;-66
2023/03/27 02:20:46;;;;;;;1.50;1.17;;;6.10;98.00;;;;;;5051618;28;20472;-67
2023/03/27 02:23:14;;;;;;;1.20;1.17;;;6.10;98.00;;;;;;5051841;28;20569;-67
2023/03/27 02:25:44;;;;;;;1.37;1.10;;;6.00;98.00;;;;;;5051637;28;20543;-66
2023/03/27 02:28:41;;;;;;;1.20;1.10;;;5.90;98.00;;;;;;5051966;28;20984;-66
2023/03/27 02:31:20;;;;;;;4.20;2.17;;;5.90;98.00;;;;;;5051702;28;20467;-66
2023/03/27 02:34:01;;;;;;;1.97;1.73;;;5.90;98.00;;;;;;5051820;28;20805;-66
2023/03/27 02:36:39;;;;;;;1.83;1.20;;;5.80;98.00;;;;;;5051608;28;20530;-66
2023/03/27 02:39:13;;;;;;;1.37;1.20;;;5.70;98.00;;;;;;5051687;28;20488;-66
2023/03/27 02:41:51;;;;;;;1.60;1.30;;;5.70;98.00;;;;;;5051437;28;20453;-66
2023/03/27 02:44:30;;;;;;;2.23;1.50;;;5.70;98.00;;;;;;5051383;28;20456;-67
2023/03/27 02:47:05;;;;;;;1.83;1.33;;;5.70;98.00;;;;;;5051401;28;20930;-67
2023/03/27 02:49:37;;;;;;;1.77;1.40;;;5.70;98.00;;;;;;5051100;28;20514;-67
2023/03/27 02:52:09;;;;;;;1.50;1.40;;;5.70;98.00;;;;;;5051276;28;21153;-66
2023/03/27 02:54:40;;;;;;;1.80;1.70;;;5.60;98.00;;;;;;5051086;28;20454;-67
2023/03/27 02:57:14;;;;;;;1.40;1.27;;;5.50;98.00;;;;;;5033900;28;20854;-66
2023/03/27 02:59:45;;;;;;;1.50;1.30;;;5.50;98.00;;;;;;5051200;28;20458;-66
2023/03/27 03:02:18;;;;;;;1.33;1.30;;;5.50;98.00;;;;;;5050811;28;20865;-66
2023/03/27 03:04:55;;;;;;;1.47;1.23;;;5.50;98.00;;;;;;5051111;28;20449;-66
2023/03/27 03:07:25;;;;;;;2.50;1.53;;;5.50;98.00;;;;;;5050968;28;20556;-66
2023/03/27 03:09:53;;;;;;;2.27;1.40;;;5.50;98.00;;;;;;5051078;28;20461;-67
2023/03/27 03:12:21;;;;;;;1.30;1.27;;;5.60;98.00;;;;;;5050777;28;20459;-67
2023/03/27 03:14:49;;;;;;;1.40;1.10;;;5.60;98.00;;;;;;5049863;28;21020;-67
2023/03/27 03:17:16;;;;;;;1.20;1.10;;;5.60;98.00;;;;;;5051048;28;20827;-66
2023/03/27 03:19:43;;;;;;;1.63;1.20;;;5.60;98.00;;;;;;5050668;28;20491;-66
2023/03/27 03:22:12;;;;;;;2.50;1.70;;;5.60;98.00;;;;;;5051054;28;20463;-66
2023/03/27 03:24:42;;;;;;;1.30;1.10;;;5.60;98.00;;;;;;5051065;28;21153;-66
2023/03/27 03:27:13;;;;;;;1.27;1.10;;;5.60;98.00;;;;;;5050072;28;20921;-67
2023/03/27 03:29:43;;;;;;;1.50;1.10;;;5.60;98.00;;;;;;5051352;28;20481;-66
2023/03/27 03:32:10;;;;;;;1.57;1.20;;;5.60;98.00;;;;;;5051342;28;20462;-67
2023/03/27 03:34:39;;;;;;;1.20;1.10;;;5.60;98.00;;;;;;5051049;28;20475;-67
2023/03/27 03:37:09;;;;;;;2.00;1.33;;;5.50;98.00;;;;;;5051090;28;20457;-67
2023/03/27 03:39:36;;;;;;;1.47;1.20;;;5.40;98.00;;;;;;5050604;28;20479;-66
2023/03/27 03:42:03;;;;;;;1.40;1.13;;;5.40;98.00;;;;;;5051350;28;20455;-66
2023/03/27 03:44:30;;;;;;;1.40;1.40;;;5.30;98.00;;;;;;5051744;28;20453;-66
2023/03/27 03:46:59;;;;;;;1.20;1.20;;;5.30;98.00;;;;;;5051414;28;20492;-66
2023/03/27 03:49:27;;;;;;;2.47;1.50;;;5.30;98.00;;;;;;5050676;28;20479;-67
2023/03/27 03:51:54;;;;;;;2.57;1.73;;;5.10;98.00;;;;;;5049615;28;20551;-66
2023/03/27 03:54:22;;;;;;;2.33;1.43;;;5.00;98.00;;;;;;5050962;28;20460;-66
2023/03/27 03:56:49;;;;;;;1.20;1.17;;;5.00;98.00;;;;;;5050873;28;20463;-66
2023/03/27 03:59:17;;;;;;;1.30;1.13;;;5.00;98.00;;;;;;5050765;28;20509;-66
2023/03/27 04:01:44;;;;;;;4.50;1.60;;;5.00;98.00;;;;;;5050753;28;20458;-66
2023/03/27 04:04:14;;;;;;;2.60;1.37;;;5.00;98.00;;;;;;5050808;28;20662;-66
2023/03/27 04:06:42;;;;;;;1.80;1.20;;;4.90;98.00;;;;;;5050766;28;20489;-66
2023/03/27 04:09:10;;;;;;;2.13;1.50;;;4.90;98.00;;;;;;5050565;28;20988;-66
2023/03/27 04:11:37;;;;;;;1.53;1.30;;;4.90;98.00;;;;;;5050668;28;21057;-66
2023/03/27 04:14:04;;;;;;;2.30;1.23;;;4.90;98.00;;;;;;5053669;28;20455;-66
2023/03/27 04:16:31;;;;;;;1.33;1.30;;;4.90;98.00;;;;;;5054282;28;20464;-66
2023/03/27 04:18:59;;;;;;;1.20;1.00;;;5.00;98.00;;;;;;5053554;28;20811;-66
2023/03/27 04:21:28;;;;;;;1.40;1.33;;;5.00;98.00;;;;;;5054271;28;20483;-66
2023/03/27 04:24:01;;;;;;;1.20;1.10;;;5.00;98.00;;;;;;5054248;28;20547;-66
2023/03/27 04:26:28;;;;;;;1.90;1.63;;;4.80;98.00;;;;;;5052909;28;20484;-67
2023/03/27 04:28:55;;;;;;;1.90;1.53;;;4.90;98.00;;;;;;5054498;28;20467;-66
2023/03/27 04:31:25;;;;;;;3.00;1.70;;;4.90;98.00;;;;;;5054155;28;20470;-66
2023/03/27 04:33:52;;;;;;;1.63;1.20;;;4.90;98.00;;;;;;5054134;28;20802;-67
2023/03/27 04:36:19;;;;;;;5.17;2.90;;;4.90;98.00;;;;;;5053772;28;20456;-66
2023/03/27 04:38:48;;;;;;;3.17;1.43;;;5.00;98.00;;;;;;5052637;28;20555;-66
2023/03/27 04:41:16;;;;;;;1.27;1.23;;;4.90;98.00;;;;;;5053787;28;20455;-66
2023/03/27 04:43:44;;;;;;;1.30;1.20;;;4.90;98.00;;;;;;5053469;28;20471;-66
2023/03/27 04:46:12;;;;;;;2.33;1.63;;;4.90;98.00;;;;;;5053449;28;20486;-66
2023/03/27 04:48:39;;;;;;;1.20;1.20;;;4.90;98.00;;;;;;5053549;28;20456;-65
2023/03/27 04:51:08;;;;;;;1.53;1.53;;;4.90;98.00;;;;;;5053387;28;20468;-67
2023/03/27 04:53:36;;;;;;;1.50;1.23;;;4.90;98.00;;;;;;5053500;28;20545;-66
2023/03/27 04:56:07;;;;;;;2.27;1.40;;;4.70;98.00;;;;;;5053384;28;20446;-66
2023/03/27 04:58:34;;;;;;;1.20;1.10;;;4.60;98.00;;;;;;5053426;28;20471;-67
2023/03/27 05:01:02;;;;;;;1.30;1.20;;;4.60;98.00;;;;;;5052224;28;20518;-66
2023/03/27 05:03:33;;;;;;;1.40;1.30;;;4.60;98.00;;;;;;5053538;28;20534;-67
2023/03/27 05:06:02;;;;;;;1.87;1.30;;;4.70;98.00;;;;;;5053186;28;20484;-67
2023/03/27 05:08:31;;;;;;;9.13;1.37;;;4.70;98.00;;;;;;5053210;28;20495;-67
2023/03/27 05:10:58;;;;;;;1.43;1.20;;;4.60;98.00;;;;;;5051815;28;20481;-68
2023/03/27 05:13:27;;;;;;;3.33;1.43;;;4.60;98.00;;;;;;5053109;28;20447;-68
2023/03/27 05:15:54;;;;;;;1.20;1.10;;;4.60;98.00;;;;;;5053299;28;20872;-67
2023/03/27 05:18:21;;;;;;;1.87;1.23;;;4.60;98.00;;;;;;5053348;28;20890;-68
2023/03/27 05:20:50;;;;;;;1.20;1.10;;;4.60;98.00;;;;;;5051726;28;20462;-67
2023/03/27 05:23:17;;;;;;;2.07;1.20;;;4.50;98.00;;;;;;5051791;28;20460;-67
2023/03/27 05:25:44;;;;;;;2.33;1.50;;;4.50;98.00;;;;;;5052325;28;20482;-67
2023/03/27 05:28:11;;;;;;;1.20;1.10;;;4.40;98.00;;;;;;5052892;28;20518;-67
2023/03/27 05:30:42;;;;;;;1.53;1.40;;;4.30;98.00;;;;;;5053095;28;20452;-67
2023/03/27 05:33:12;;;;;;;3.83;1.40;;;4.30;98.00;;;;;;5053046;28;20517;-67
2023/03/27 05:35:41;;;;;;;1.57;1.30;;;4.40;98.00;;;;;;5052701;28;20509;-67
2023/03/27 05:38:09;;;;;;;1.57;1.30;;;4.40;98.00;;;;;;5052615;28;20499;-67
2023/03/27 05:40:36;;;;;;;1.40;1.27;;;4.40;98.00;;;;;;5052476;28;20463;-67
2023/03/27 05:43:04;;;;;;;3.50;1.63;;;4.50;98.00;;;;;;5051236;28;20461;-67
2023/03/27 05:45:32;;;;;;;10.20;1.50;;;4.50;98.00;;;;;;5052385;28;20590;-67
2023/03/27 05:48:04;;;;;;;11.73;1.40;;;4.60;98.00;;;;;;5052442;28;20485;-67
2023/03/27 05:50:34;;;;;;;2.57;1.87;;;4.60;98.00;;;;;;5052204;28;20510;-68
2023/03/27 05:53:03;;;;;;;3.93;1.20;;;4.70;98.00;;;;;;5052398;28;20458;-67
2023/03/27 05:55:30;;;;;;;1.50;1.10;;;4.70;98.00;;;;;;5052333;28;20471;-67
2023/03/27 05:57:58;;;;;;;2.40;1.50;;;4.70;98.00;;;;;;5051073;28;20664;-67
2023/03/27 06:00:30;;;;;;;1.73;1.33;;;4.70;98.00;;;;;;5052357;28;20467;-67
2023/03/27 06:02:59;;;;;;;4.60;1.40;;;4.70;98.00;;;;;;5052233;28;20488;-62
2023/03/27 06:05:31;;;;;;;5.33;1.80;;;4.70;98.00;;;;;;5052104;28;20455;-62
2023/03/27 06:07:58;;;;;;;1.50;1.30;;;4.70;98.00;;;;;;5051989;28;20493;-62
2023/03/27 06:10:26;;;;;;;4.80;1.80;;;4.60;98.00;;;;;;5052266;28;20804;-62
2023/03/27 06:13:00;;;;;;;11.80;2.50;;;4.40;98.00;;;;;;5052106;28;21043;-62
2023/03/27 06:15:27;;;;;;;1.73;1.20;;;4.30;98.00;;;;;;5052050;28;20550;-62
2023/03/27 06:17:54;;;;;;;1.43;1.20;;;4.20;98.00;;;;;;5051895;28;20466;-62
2023/03/27 06:20:23;;;;;;;4.10;1.73;;;4.20;98.00;;;;;;5051775;28;20462;-62
2023/03/27 06:22:55;;;;;;;1.80;1.30;;;4.30;98.00;;;;;;5052045;28;20802;-62
2023/03/27 06:25:23;;;;;;;12.83;2.00;;;4.30;98.00;;;;;;5051843;28;20452;-62
2023/03/27 06:27:52;;;;;;;1.87;1.30;;;4.20;98.00;;;;;;5052086;28;20491;-62
2023/03/27 06:30:21;;;;;;;1.20;1.00;;;4.30;98.00;;;;;;5051782;28;20831;-62
2023/03/27 06:32:50;;;;;;;1.20;1.17;;;4.30;98.00;;;;;;5051657;28;20460;-62
2023/03/27 06:35:18;;;;;;;1.47;1.43;;;4.40;98.00;;;;;;5051408;28;20451;-62
2023/03/27 06:37:49;;;;;;;1.23;1.23;;;4.50;98.00;;;;;;5051099;28;20878;-62
2023/03/27 06:40:21;;;;;;;1.20;1.20;;;4.50;98.00;;;;;;5051457;28;20462;-62
2023/03/27 06:42:53;;;;;;;1.77;1.30;;;4.50;98.00;;;;;;5051596;28;20459;-63
2023/03/27 06:45:30;;;;;;;7.80;2.00;;;4.50;98.00;;;;;;5051210;28;20469;-62
2023/03/27 06:48:01;;;;;;;1.87;1.47;;;4.50;98.00;;;;;;5051347;28;20591;-62
2023/03/27 06:50:29;;;;;;;5.83;1.30;;;4.50;98.00;;;;;;5051300;28;20459;-62
2023/03/27 06:52:58;;;;;;;4.60;1.53;;;4.50;98.00;;;;;;5051411;28;20453;-62
2023/03/27 06:55:30;;;;;;;1.67;1.20;;;4.50;98.00;;;;;;5051397;28;20638;-62
2023/03/27 06:58:00;;;;;;;1.70;1.33;;;4.50;98.00;;;;;;5051685;28;20947;-62
2023/03/27 07:00:32;;;;;;;4.20;1.50;;;4.60;98.00;;;;;;5051717;28;20474;-62
2023/03/27 07:03:02;;;;;;;1.40;1.20;;;4.70;98.00;;;;;;5051204;28;20451;-63
2023/03/27 07:05:35;;;;;;;1.43;1.27;;;4.70;98.00;;;;;;5051065;28;20490;-62
2023/03/27 07:08:03;;;;;;;1.43;1.23;;;4.70;98.00;;;;;;5051057;28;20851;-62
2023/03/27 07:10:32;;;;;;;1.20;1.10;;;4.70;98.00;;;;;;5051000;28;20536;-62
2023/03/27 07:12:59;;;;;;;1.70;1.50;;;4.70;98.00;;;;;;5050975;28;20459;-62
2023/03/27 07:15:26;;;;;;;3.10;1.40;;;4.70;98.00;;;;;;5050913;28;20517;-62
2023/03/27 07:17:55;;;;;;;2.17;1.50;;;4.70;98.00;;;;;;5049687;28;20459;-62
2023/03/27 07:20:26;;;;;;;1.77;1.60;;;4.50;98.00;;;;;;5050937;28;20453;-62
2023/03/27 07:22:56;;;;;;;1.30;1.30;;;4.50;98.00;;;;;;5051295;28;20549;-63
2023/03/27 07:25:23;;;;;;;1.27;1.10;;;4.40;98.00;;;;;;5051475;28;20486;-62
2023/03/27 07:27:58;;;;;;;15.07;1.70;;;4.50;98.00;;;;;;5051090;28;20795;-62
2023/03/27 07:30:27;;;;;;;1.50;1.30;;;4.40;98.00;;;;;;5051138;28;20466;-62
2023/03/27 07:32:54;;;;;;;1.60;1.37;;;4.40;98.00;;;;;;5051159;28;20469;-62
2023/03/27 07:35:21;;;;;;;2.43;1.37;;;4.40;98.00;;;;;;5050900;28;20964;-62
2023/03/27 07:37:49;;;;;;;1.50;1.30;;;4.40;98.00;;;;;;5050790;28;20459;-62
2023/03/27 07:40:20;;;;;;;1.50;1.20;;;4.50;98.00;;;;;;5050660;28;20463;-62
2023/03/27 07:42:48;;;;;;;3.20;1.30;;;4.40;98.00;;;;;;5050978;28;20451;-62
2023/03/27 07:45:17;;;;;;;1.50;1.17;;;4.40;98.00;;;;;;5050507;28;20500;-62
2023/03/27 07:47:45;;;;;;;3.13;1.40;;;4.40;98.00;;;;;;5051814;28;20483;-62
2023/03/27 07:50:14;;;;;;;3.73;2.17;;;4.50;98.00;;;;;;5054230;28;20470;-62
2023/03/27 07:52:43;;;;;;;1.17;1.17;;;4.50;98.00;;;;;;5054667;28;20863;-62
2023/03/27 07:55:13;;;;;;;4.53;1.40;;;4.60;98.00;;;;;;5052726;28;20937;-62
2023/03/27 07:57:41;;;;;;;1.57;1.53;;;4.60;98.00;;;;;;5054558;28;20973;-62
2023/03/27 08:00:13;;;;;;;1.20;1.20;;;4.50;98.00;;;;;;5045850;28;20459;-62
2023/03/27 08:02:42;;;;;;;1.20;1.10;;;4.50;98.00;;;;;;5054176;28;20593;-62
2023/03/27 08:05:11;;;;;;;1.37;1.20;;;4.70;98.00;;;;;;5053608;28;20463;-62
2023/03/27 08:07:39;;;;;;;1.77;1.10;;;4.80;98.00;;;;;;5047097;28;20586;-62
2023/03/27 08:10:08;;;;;;;1.10;1.00;;;4.90;98.00;;;;;;5047564;28;20526;-62
2023/03/27 08:12:36;;;;;;;2.27;1.10;;;5.00;98.00;;;;;;5052851;28;20459;-62
2023/03/27 08:15:03;;;;;;;1.50;1.20;;;5.00;98.00;;;;;;5052220;28;20503;-62
2023/03/27 08:17:32;;;;;;;2.20;1.33;;;5.00;98.00;;;;;;5033920;28;20458;-62
2023/03/27 08:20:08;;;;;;;1.60;1.13;;;5.00;98.00;;;;;;5034000;28;20468;-62
2023/03/27 08:22:35;;;;;;;9.50;1.30;;;4.90;98.00;;;;;;5034578;28;20456;-62
2023/03/27 08:25:04;;;;;;;6.90;1.83;;;4.90;98.00;;;;;;5053745;28;20821;-62
2023/03/27 08:27:32;;;;;;;1.37;1.10;;;5.00;98.00;;;;;;5048248;28;20513;-63
2023/03/27 08:29:59;;;;;;;1.70;1.57;;;5.00;98.00;;;;;;5028865;28;20493;-62
2023/03/27 08:32:26;;;;;;;8.60;1.57;;;5.00;98.00;;;;;;5033891;28;20862;-62
2023/03/27 08:34:57;;;;;;;1.77;1.43;;;5.10;98.00;;;;;;5033857;28;20861;-62
2023/03/27 08:37:26;;;;;;;1.40;1.20;;;5.20;98.00;;;;;;5032018;28;20464;-63
2023/03/27 08:39:57;;;;;;;1.70;1.20;;;5.30;98.00;;;;;;5033627;28;20462;-62
2023/03/27 08:42:35;;;;;;;2.17;1.40;;;5.50;98.00;;;;;;5033482;28;20971;-63
2023/03/27 08:45:13;;;;;;;1.53;1.23;;;5.70;98.00;;;;;;5033424;28;20458;-62
2023/03/27 08:47:44;;;;;;;1.60;1.10;;;5.90;98.00;;;;;;5033426;28;20486;-62
2023/03/27 08:50:22;;;;;;;2.37;1.50;;;6.00;98.00;;;;;;5029591;28;20496;-63
2023/03/27 08:52:51;;;;;;;2.73;1.50;;;6.20;98.00;;;;;;5028331;28;20466;-63
2023/03/27 08:55:27;;;;;;;5.43;1.30;;;6.30;98.00;;;;;;5032982;28;21019;-63
2023/03/27 08:57:55;;;;;;;3.93;1.83;;;6.50;98.00;;;;;;5037373;28;20457;-63
2023/03/27 09:00:28;;;;;;;1.40;1.30;;;6.70;98.00;;;;;;5043748;28;20963;-62
2023/03/27 09:03:03;;;;;;;5.53;1.63;;;6.80;98.00;;;;;;5033273;28;20458;-62
2023/03/27 09:05:39;;;;;;;1.47;1.20;;;6.80;98.00;;;;;;5031915;28;20472;-65
2023/03/27 09:08:20;;;;;;;1.50;1.20;;;6.90;98.00;;;;;;5033156;28;20572;-62
2023/03/27 09:10:51;;;;;;;1.50;1.20;;;6.90;98.00;;;;;;5032999;28;20477;-62
2023/03/27 09:13:22;;;;;;;1.20;1.00;;;6.60;98.00;;;;;;5044302;28;20463;-64
2023/03/27 09:15:56;;;;;;;1.40;1.20;;;6.90;98.00;;;;;;5048402;28;20827;-63
2023/03/27 09:18:27;;;;;;;3.10;1.30;;;7.40;98.00;;;;;;5053110;28;20459;-63
2023/03/27 09:20:59;;;;;;;2.80;1.47;;;7.30;98.00;;;;;;5038976;28;20556;-63
2023/03/27 09:23:33;;;;;;;1.90;1.40;;;7.40;98.00;;;;;;5030910;28;20492;-63
2023/03/27 09:26:05;;;;;;;2.13;1.30;;;7.50;98.00;;;;;;5033340;28;20457;-62
2023/03/27 09:28:37;;;;;;;2.30;1.30;;;7.40;98.00;;;;;;5030699;28;20557;-62
2023/03/27 09:31:23;;;;;;;1.80;1.23;;;7.10;98.00;;;;;;5031423;28;20463;-63
2023/03/27 09:33:51;;;;;;;2.63;1.20;;;7.20;98.00;;;;;;5033596;28;20502;-63
2023/03/27 09:36:25;;;;;;;1.47;1.37;;;7.50;98.00;;;;;;5032717;28;20464;-63
2023/03/27 09:39:00;;;;;;;1.50;1.30;;;7.40;98.00;;;;;;5032178;28;20511;-63
2023/03/27 09:41:36;;;;;;;1.40;1.40;;;7.30;98.00;;;;;;5033890;28;20466;-62
2023/03/27 09:44:09;;;;;;;2.17;1.20;;;7.10;98.00;;;;;;5015684;28;20451;-63
2023/03/27 09:46:40;;;;;;;2.10;1.33;;;6.90;98.00;;;;;;5029937;28;20461;-63
2023/03/27 09:49:13;;;;;;;1.20;1.20;;;7.00;98.00;;;;;;5032009;28;20505;-62
2023/03/27 09:51:43;;;;;;;1.20;1.03;;;7.10;98.00;;;;;;5033134;28;20545;-62
2023/03/27 09:54:13;;;;;;;1.87;1.23;;;7.10;98.00;;;;;;5032779;28;20462;-62
2023/03/27 09:56:45;;;;;;;1.20;1.10;;;7.00;98.00;;;;;;5032549;28;20465;-63
2023/03/27 09:59:23;;;;;;;1.63;1.07;;;6.90;98.00;;;;;;5031615;28;20465;-63
2023/03/27 10:01:52;;;;;;;1.53;1.27;;;6.90;98.00;;;;;;5032470;28;20905;-63
2023/03/27 10:04:22;;;;;;;1.60;1.20;;;7.00;98.00;;;;;;5032892;28;20551;-63
2023/03/27 10:06:58;;;;;;;2.60;1.30;;;7.10;98.00;;;;;;5032578;28;20463;-62
2023/03/27 10:09:28;;;;;;;2.80;2.07;;;7.40;98.00;;;;;;5032481;28;20857;-63
2023/03/27 10:12:08;;;;;;;1.43;1.20;;;7.80;98.00;;;;;;5032557;28;20448;-63
2023/03/27 10:14:38;;;;;;;2.37;1.30;;;8.00;98.00;;;;;;5032373;28;20482;-62
2023/03/27 10:17:05;;;;;;;1.30;1.20;;;7.90;98.00;;;;;;5037425;28;20461;-63
2023/03/27 10:19:37;;;;;;;1.30;1.20;;;7.70;97.90;;;;;;5023655;28;20459;-62
2023/03/27 10:22:20;;;;;;;1.73;1.33;;;7.80;98.00;;;;;;5035190;28;21037;-62
2023/03/27 10:24:49;;;;;;;1.23;1.10;;;7.80;98.00;;;;;;5032913;28;20456;-62
2023/03/27 10:27:27;;;;;;;1.30;1.03;;;7.80;98.00;;;;;;5032296;28;20457;-63
2023/03/27 10:29:54;;;;;;;1.20;1.10;;;7.80;98.00;;;;;;5032090;28;20471;-62
2023/03/27 10:32:47;;;;;;;19.50;1.70;;;7.70;98.00;;;;;;5032276;28;20880;-62
2023/03/27 10:35:34;;;;;;;1.50;1.40;;;7.50;98.00;;;;;;5031960;28;20459;-62
2023/03/27 10:38:02;;;;;;;2.43;1.40;;;7.90;98.00;;;;;;5031970;28;20481;-62
2023/03/27 10:40:34;;;;;;;1.20;1.10;;;8.60;98.00;;;;;;5031962;28;20494;-63
2023/03/27 10:43:04;;;;;;;3.37;1.43;;;8.30;94.90;;;;;;5032171;28;20461;-62
2023/03/27 10:45:38;;;;;;;2.10;1.60;;;8.10;96.60;;;;;;5031801;28;20464;-62
2023/03/27 10:48:07;;;;;;;1.53;1.20;;;8.40;97.00;;;;;;5031550;28;20628;-62
2023/03/27 10:50:41;;;;;;;2.03;1.40;;;8.60;95.10;;;;;;5031752;28;20471;-63
2023/03/27 10:53:16;;;;;;;1.20;1.00;;;8.90;97.10;;;;;;5031952;28;20456;-62
2023/03/27 10:55:54;;;;;;;1.40;1.20;;;9.20;94.70;;;;;;5030848;28;20462;-62
2023/03/27 10:58:26;;;;;;;1.63;1.30;;;9.50;93.90;;;;;;5031984;28;20861;-62
2023/03/27 11:00:58;;;;;;;5.33;1.57;;;9.50;90.00;;;;;;5030618;28;20545;-63
2023/03/27 11:03:34;;;;;;;1.20;1.17;;;9.70;92.40;;;;;;5031944;28;20476;-62
2023/03/27 11:06:05;;;;;;;4.53;1.70;;;10.00;92.40;;;;;;5030679;28;20555;-63
2023/03/27 11:08:40;;;;;;;1.97;1.10;;;9.80;91.20;;;;;;5031760;28;20517;-62
2023/03/27 11:11:17;;;;;;;1.60;1.10;;;9.40;92.80;;;;;;5031854;28;20460;-62
2023/03/27 11:13:46;;;;;;;1.70;1.13;;;9.10;92.90;;;;;;5032107;28;20458;-63
2023/03/27 11:16:16;;;;;;;2.40;1.60;;;8.70;93.50;;;;;;5031674;28;20463;-63
2023/03/27 11:18:49;;;;;;;1.20;1.03;;;8.90;96.70;;;;;;5031877;28;20462;-63
2023/03/27 11:21:22;;;;;;;3.50;2.20;;;8.70;91.90;;;;;;5031798;28;20455;-61
2023/03/27 11:23:53;;;;;;;1.73;1.30;;;9.20;94.10;;;;;;5034920;28;20519;-61
2023/03/27 11:26:23;;;;;;;2.63;1.30;;;9.40;93.70;;;;;;5035649;28;20982;-60
2023/03/27 11:28:56;;;;;;;1.83;1.33;;;9.50;93.40;;;;;;5035688;28;20516;-61
2023/03/27 11:31:34;;;;;;;1.50;1.30;;;9.10;94.20;;;;;;5035292;28;20453;-60
2023/03/27 11:34:05;;;;;;;1.40;1.17;;;8.90;95.60;;;;;;5035443;28;20453;-60
2023/03/27 11:36:42;;;;;;;1.20;1.10;;;8.70;95.20;;;;;;5035622;28;20492;-61
2023/03/27 11:39:21;;;;;;;1.20;1.07;;;8.30;94.10;;;;;;5035405;28;20537;-60
2023/03/27 11:41:53;;;;;;;5.03;1.60;;;8.60;98.00;;;;;;5035586;28;20963;-62
2023/03/27 11:44:21;;;;;;;2.70;1.50;;;9.50;95.50;;;;;;5035407;28;20470;-62
2023/03/27 11:47:01;;;;;;;1.70;1.13;;;9.80;98.00;;;;;;5035567;28;20465;-62
2023/03/27 11:49:47;;;;;;;1.30;1.30;;;9.70;91.30;;;;;;5035218;28;20500;-62
2023/03/27 11:52:26;;;;;;;1.30;1.07;;;9.40;90.70;;;;;;5035378;28;20473;-61
2023/03/27 11:55:11;;;;;;;1.57;1.20;;;9.50;93.00;;;;;;5035268;28;20483;-62
2023/03/27 11:57:51;;;;;;;2.43;1.50;;;9.70;92.40;;;;;;5035049;28;20504;-62
2023/03/27 12:00:26;;;;;;;6.57;1.40;;;9.60;92.30;;;;;;5034517;28;20978;-62
2023/03/27 12:03:18;;;;;;;1.57;1.43;;;9.50;90.00;;;;;;5035172;28;20456;-63
2023/03/27 12:06:01;;;;;;;3.07;1.40;;;9.00;89.30;;;;;;5035445;28;20553;-62
2023/03/27 12:08:36;;;;;;;1.20;1.10;;;8.70;91.90;;;;;;5035271;28;20569;-62
2023/03/27 12:11:08;;;;;;;1.67;1.30;;;8.60;93.00;;;;;;5035322;28;21069;-62
2023/03/27 12:13:55;;;;;;;1.77;1.20;;;8.50;93.10;;;;;;5034163;28;20813;-62
2023/03/27 12:16:44;;;;;;;3.90;1.53;;;8.30;94.20;;;;;;5035118;28;20465;-62
2023/03/27 12:19:31;;;;;;;1.97;1.30;;;8.30;92.50;;;;;;5035151;28;20477;-62
2023/03/27 12:22:15;;;;;;;2.03;1.20;;;8.40;93.10;;;;;;5034987;28;20467;-62
2023/03/27 12:24:49;;;;;;;1.30;1.10;;;9.30;93.20;;;;;;5034787;28;20949;-62
2023/03/27 12:27:43;;;;;;;2.07;1.30;;;10.30;93.50;;;;;;5034814;28;20468;-63
2023/03/27 12:30:32;;;;;;;1.40;1.10;;;10.40;87.90;;;;;;5032340;28;20516;-62
2023/03/27 12:33:20;;;;;;;2.03;1.40;;;10.10;88.90;;;;;;5034742;28;20457;-63
2023/03/27 12:35:51;;;;;;;1.37;1.27;;;9.70;89.20;;;;;;5033687;28;20463;-62
2023/03/27 12:38:26;;;;;;;1.57;1.10;;;9.30;88.80;;;;;;5034560;28;20465;-62
2023/03/27 12:41:04;;;;;;;1.20;1.10;;;9.00;89.40;;;;;;5034445;28;20811;-61
2023/03/27 12:43:33;;;;;;;2.50;1.13;;;9.00;90.50;;;;;;5034527;28;20477;-63
2023/03/27 12:46:31;;;;;;;1.60;1.30;;;8.80;89.20;;;;;;5034419;28;20455;-63
2023/03/27 12:49:04;;;;;;;1.37;1.10;;;9.30;92.10;;;;;;5029947;28;20493;-62
2023/03/27 12:51:46;;;;;;;1.33;1.10;;;9.60;88.10;;;;;;5033979;28;20538;-62
2023/03/27 12:54:31;;;;;;;1.50;1.40;;;9.70;88.40;;;;;;5034401;28;20468;-63
2023/03/27 12:57:06;;;;;;;1.50;1.30;;;9.60;90.60;;;;;;5034287;28;20548;-63
2023/03/27 12:59:37;;;;;;;1.77;1.30;;;9.40;90.50;;;;;;5034361;28;20457;-63
2023/03/27 13:02:40;;;;;;;1.53;1.40;;;9.20;89.70;;;;;;5034154;28;20468;-63
2023/03/27 13:05:34;;;;;;;1.60;1.20;;;9.70;92.40;;;;;;5034215;28;20937;-63
2023/03/27 13:08:37;;;;;;;1.60;1.40;;;9.60;90.60;;;;;;5034365;28;20452;-63
2023/03/27 13:11:22;;;;;;;4.03;1.30;;;9.30;89.70;;;;;;5002388;28;20458;-64
2023/03/27 13:14:25;;;;;;;1.40;1.30;;;9.00;91.10;;;;;;5033079;28;20515;-67
2023/03/27 13:17:05;;;;;;;1.23;1.10;;;8.60;95.30;;;;;;5035365;28;20549;-63
2023/03/27 13:19:42;;;;;;;1.70;1.20;;;8.80;93.70;;;;;;5050169;28;20547;-64
2023/03/27 13:22:27;;;;;;;2.00;1.30;;;8.80;91.40;;;;;;5053729;28;20543;-62
2023/03/27 13:25:16;;;;;;;1.50;1.20;;;8.50;91.50;;;;;;5053732;28;20878;-62
2023/03/27 13:28:17;;;;;;;2.70;1.20;;;8.30;95.30;;;;;;5040563;28;20454;-62